Weather at Malta International Airport

Public forecast

Using degrees Celsius for public forecast. Weather courtesy of forecast.io.

Current aviation weather report (METAR) for Malta International Airport

Report is more than 6 hours old.

2022/11/14 14:45 (retrieved 2 years ago)

LMML 141445Z 18005KT 9999 FEW023 21/14 Q1022 NOSIG

Aviation forecast (TAF) for Malta International Airport

Forecast is more than 12 hours old.

2023/02/22 18:42 (retrieved 1 year ago)

TAF LMML 221700Z 2218/2318 20010KT 9999 FEW020 PROB40 TEMPO 2221/2306 4000 BR PROB30 TEMPO 2221/2306 2000 BCFG BKN002 BECMG 2306/2309 12005KT